YPKG/KGI METAR and TAF weather

Enter ICAO airport designator
Station Type Date Time Source
YPKG METAR 2021/09/28 04:30 UTC NOAA

YPKG 280430Z AUTO 15011KT 9999 // BKN045 BKN053 18/06 Q1017


Station Type Date Time Source
YPKG Decoded METAR 2021/09/28 04:30 UTC NOAA

Kalgoorlie Boulder Amo, Australia (YPKG) 30-47S 121-27E 370M
Sep 28, 2021 - 12:30 AM EDT / 2021.09.28 0430 UTC
Wind: from the SSE (150 degrees) at 13 MPH (11 KT):0
Visibility: greater than 7 mile(s):0
Sky conditions: mostly cloudy
Temperature: 64 F (18 C)
Dew Point: 42 F (6 C)
Relative Humidity: 45%
Pressure (altimeter): 30.03 in. Hg (1017 hPa)
ob: YPKG 280430Z AUTO 15011KT 9999 // BKN045 BKN053 18/06 Q1017
cycle: 4

Station Type Date Time Source
YPKG TAF 2021/09/27 18:00 UTC NOAA

TAF YPKG 271728Z 2718/2818 19010KT 9999 BKN020
FM272100 18006KT 9999 BKN015
BECMG 2723/2800 18010KT 9999 BKN025
FM280200 18008KT 9999 BKN045
FM280600 17008KT CAVOK
FM281100 13008KT CAVOK

Example: see airport list